createdAt,value
2019-03-25T00:03:47.596Z,98.96
2019-03-25T00:09:04.493Z,98.80
2019-03-25T00:13:58.945Z,98.58
2019-03-25T00:19:03.613Z,98.20
2019-03-25T00:24:08.526Z,97.24
2019-03-25T00:29:13.106Z,96.22
2019-03-25T00:34:17.861Z,95.62
2019-03-25T00:39:22.527Z,95.18
2019-03-25T00:44:27.184Z,94.87
2019-03-25T00:49:31.765Z,95.22
2019-03-25T00:54:36.635Z,96.01
2019-03-25T00:59:41.375Z,96.35
2019-03-25T01:04:46.210Z,96.50
2019-03-25T01:09:51.050Z,96.19
2019-03-25T01:14:55.805Z,95.99
2019-03-25T01:20:00.556Z,95.91
2019-03-25T01:25:05.970Z,95.44
2019-03-25T01:30:11.004Z,95.49
2019-03-25T01:35:16.253Z,95.36
2019-03-25T01:40:21.045Z,95.21
2019-03-25T01:45:25.821Z,95.50
2019-03-25T01:50:30.570Z,95.46
2019-03-25T01:55:35.160Z,95.07
2019-03-25T02:00:39.917Z,95.09
2019-03-25T02:05:44.705Z,95.46
2019-03-25T02:10:49.375Z,96.02
2019-03-25T02:15:54.010Z,95.80
2019-03-25T02:20:58.596Z,95.97
2019-03-25T02:26:03.316Z,96.30
2019-03-25T02:31:08.131Z,96.21
2019-03-25T02:36:12.861Z,96.28
2019-03-25T02:41:19.112Z,95.81
2019-03-25T02:46:26.505Z,95.53
2019-03-25T02:51:31.136Z,95.50
2019-03-25T02:56:35.794Z,96.00
2019-03-25T03:01:40.607Z,95.51
2019-03-25T03:06:45.357Z,95.66
2019-03-25T03:11:50.014Z,95.26
2019-03-25T03:16:54.738Z,94.05
2019-03-25T03:21:59.498Z,94.09
2019-03-25T03:27:04.226Z,94.61
2019-03-25T03:32:08.895Z,94.66
2019-03-25T03:37:13.695Z,94.89
2019-03-25T03:42:18.666Z,95.05
2019-03-25T03:47:23.412Z,95.67
2019-03-25T03:52:28.190Z,95.83
2019-03-25T03:57:32.989Z,95.83
2019-03-25T04:02:37.734Z,95.82
2019-03-25T04:07:42.638Z,95.36
2019-03-25T04:12:47.367Z,95.13
2019-03-25T04:17:52.264Z,95.09
2019-03-25T04:22:57.345Z,95.14
2019-03-25T04:28:02.025Z,95.30
2019-03-25T04:33:06.887Z,95.38
2019-03-25T04:38:11.476Z,95.39
2019-03-25T04:43:16.381Z,95.59
2019-03-25T04:48:21.011Z,95.30
2019-03-25T04:53:25.837Z,94.84
2019-03-25T04:58:30.599Z,94.35
2019-03-25T05:03:35.520Z,94.06
2019-03-25T05:08:40.285Z,93.81
2019-03-25T05:13:44.913Z,94.13
2019-03-25T05:18:49.671Z,93.47
2019-03-25T05:23:54.330Z,92.03
2019-03-25T05:28:59.056Z,90.52
2019-03-25T05:34:03.796Z,88.76
2019-03-25T05:39:09.297Z,88.25
2019-03-25T05:44:14.611Z,87.89
2019-03-25T05:49:19.566Z,87.01
2019-03-25T05:54:24.353Z,88.34
2019-03-25T05:59:29.248Z,87.56
2019-03-25T06:04:36.600Z,85.92
2019-03-25T06:09:41.292Z,86.57
2019-03-25T06:14:46.041Z,85.62
2019-03-25T06:19:50.780Z,84.36
2019-03-25T06:24:55.525Z,84.45
2019-03-25T06:30:00.351Z,83.27
2019-03-25T06:35:05.622Z,83.83
2019-03-25T06:40:10.382Z,84.09
2019-03-25T06:45:16.102Z,83.85
2019-03-25T06:50:20.737Z,83.76
2019-03-25T06:55:25.718Z,82.54
2019-03-25T07:00:30.550Z,81.84
2019-03-25T07:05:35.516Z,80.82
2019-03-25T07:10:40.564Z,82.15
2019-03-25T07:15:45.605Z,81.71
2019-03-25T07:20:51.975Z,81.70
2019-03-25T07:25:57.102Z,80.17
2019-03-25T07:31:01.880Z,80.03
2019-03-25T07:36:06.996Z,81.19
2019-03-25T07:41:11.857Z,80.75
2019-03-25T07:46:17.809Z,81.90
2019-03-25T07:51:22.596Z,82.23
2019-03-25T07:56:28.684Z,81.81
2019-03-25T08:01:36.225Z,81.56
2019-03-25T08:06:40.870Z,81.27
2019-03-25T08:11:45.659Z,80.97
2019-03-25T08:16:50.445Z,79.34
2019-03-25T08:21:55.246Z,79.36
2019-03-25T08:26:59.866Z,77.64
2019-03-25T08:32:04.812Z,79.06
2019-03-25T08:37:09.581Z,81.24
2019-03-25T08:42:14.737Z,81.06
2019-03-25T08:47:19.503Z,78.99
2019-03-25T08:52:24.166Z,80.16
2019-03-25T08:57:28.925Z,78.57
2019-03-25T09:02:33.849Z,75.27
2019-03-25T09:07:38.798Z,72.25
2019-03-25T09:12:44.517Z,69.62
2019-03-25T09:17:49.265Z,65.79
2019-03-25T09:22:53.996Z,65.79
2019-03-25T09:27:59.790Z,65.46
2019-03-25T09:33:04.649Z,64.81
2019-03-25T09:38:09.725Z,64.06
2019-03-25T09:43:14.561Z,63.24
2019-03-25T09:48:20.410Z,63.09
2019-03-25T09:53:25.416Z,59.85
2019-03-25T09:58:36.146Z,60.13
2019-03-25T10:03:36.645Z,60.91
2019-03-25T10:08:41.445Z,61.25
2019-03-25T10:13:46.530Z,57.91
2019-03-25T10:18:51.200Z,57.12
2019-03-25T10:23:56.050Z,59.54
2019-03-25T10:29:00.981Z,58.95
2019-03-25T10:34:06.190Z,60.69
2019-03-25T10:39:10.884Z,64.93
2019-03-25T10:44:15.887Z,63.44
2019-03-25T10:49:24.617Z,58.31
2019-03-25T10:54:30.430Z,60.39
2019-03-25T10:59:35.433Z,58.28
2019-03-25T11:04:40.108Z,59.74
2019-03-25T11:09:45.215Z,60.70
2019-03-25T11:14:49.915Z,60.93
2019-03-25T11:19:54.654Z,59.34
2019-03-25T11:24:59.715Z,58.59
2019-03-25T11:30:07.992Z,60.21
2019-03-25T11:35:13.115Z,55.04
2019-03-25T11:40:18.068Z,58.97
2019-03-25T11:45:22.913Z,59.34
2019-03-25T11:50:28.620Z,57.86
2019-03-25T11:55:33.420Z,55.78
2019-03-25T12:00:38.211Z,53.81
2019-03-25T12:05:42.949Z,54.21
2019-03-25T12:10:47.753Z,55.07
2019-03-25T12:15:52.526Z,56.29
2019-03-25T12:20:57.180Z,58.39
2019-03-25T12:26:01.965Z,59.90
2019-03-25T12:31:06.799Z,59.60
2019-03-25T12:36:11.606Z,58.26
2019-03-25T12:41:16.244Z,58.49
2019-03-25T12:46:21.191Z,58.38
2019-03-25T12:51:26.240Z,58.07
2019-03-25T12:56:31.052Z,57.91
2019-03-25T13:01:35.754Z,56.04
2019-03-25T13:06:40.885Z,54.23
2019-03-25T13:11:45.575Z,53.85
2019-03-25T13:16:50.471Z,57.33
2019-03-25T13:21:55.205Z,53.03
2019-03-25T13:27:00.010Z,55.38
2019-03-25T13:32:04.867Z,52.48
2019-03-25T13:37:09.645Z,53.36
2019-03-25T13:42:15.481Z,54.93
2019-03-25T13:47:20.298Z,53.30
2019-03-25T13:52:26.224Z,53.89
2019-03-25T13:57:30.853Z,55.97
2019-03-25T14:02:35.912Z,56.25
2019-03-25T14:07:40.863Z,55.61
2019-03-25T14:12:48.675Z,55.28
2019-03-25T14:17:53.566Z,56.00
2019-03-25T14:22:58.671Z,56.14
2019-03-25T14:28:03.428Z,55.23
2019-03-25T14:33:08.339Z,57.26
2019-03-25T14:38:13.096Z,58.48
2019-03-25T14:43:17.842Z,61.92
2019-03-25T14:48:22.452Z,61.29
2019-03-25T14:53:27.221Z,62.36
2019-03-25T14:58:32.070Z,61.86
2019-03-25T15:03:38.833Z,60.70
2019-03-25T15:08:43.525Z,63.08
2019-03-25T15:13:48.242Z,62.32
2019-03-25T15:18:52.931Z,62.49
2019-03-25T15:23:57.882Z,63.53
2019-03-25T15:29:02.829Z,63.51
2019-03-25T15:34:07.977Z,68.05
2019-03-25T15:39:12.981Z,69.54
2019-03-25T15:44:17.572Z,70.82
2019-03-25T15:49:22.465Z,64.86
2019-03-25T15:54:27.981Z,64.86
2019-03-25T15:59:32.968Z,65.74
2019-03-25T16:04:37.556Z,66.56
2019-03-25T16:09:42.229Z,66.42
2019-03-25T16:14:47.146Z,68.44
2019-03-25T16:19:52.013Z,68.78
2019-03-25T16:24:57.091Z,69.66
2019-03-25T16:30:02.192Z,69.13
2019-03-25T16:35:07.145Z,69.82
2019-03-25T16:40:12.848Z,72.02
2019-03-25T16:45:17.440Z,73.79
2019-03-25T16:50:22.485Z,73.01
2019-03-25T16:55:28.357Z,72.85
2019-03-25T17:00:33.145Z,72.25
2019-03-25T17:05:37.782Z,73.53
2019-03-25T17:10:44.726Z,74.97
2019-03-25T17:15:49.402Z,75.34
2019-03-25T17:20:54.036Z,75.64
2019-03-25T17:25:59.279Z,76.45
2019-03-25T17:31:06.220Z,76.81
2019-03-25T17:36:10.985Z,77.05
2019-03-25T17:41:15.660Z,77.69
2019-03-25T17:46:20.305Z,78.60
2019-03-25T17:51:25.448Z,79.85
2019-03-25T17:56:31.245Z,79.77
2019-03-25T18:01:37.577Z,80.16
2019-03-25T18:06:42.367Z,80.67
2019-03-25T18:11:46.971Z,81.19
2019-03-25T18:16:51.775Z,81.80
2019-03-25T18:21:56.560Z,82.34
2019-03-25T18:27:01.326Z,82.95
2019-03-25T18:32:05.985Z,83.00
2019-03-25T18:37:10.651Z,83.60
2019-03-25T18:42:15.670Z,84.12
2019-03-25T18:47:20.628Z,84.70
2019-03-25T18:52:26.925Z,85.02
2019-03-25T18:57:32.304Z,85.29
2019-03-25T19:02:37.080Z,85.48
2019-03-25T19:07:45.536Z,85.72
2019-03-25T19:12:50.246Z,85.53
2019-03-25T19:17:55.363Z,85.23
2019-03-25T19:23:00.131Z,85.45
2019-03-25T19:28:04.909Z,85.49
2019-03-25T19:33:10.164Z,85.71
2019-03-25T19:38:15.058Z,86.00
2019-03-25T19:43:22.322Z,85.79
2019-03-25T19:48:28.288Z,86.05
2019-03-25T19:53:32.912Z,86.60
2019-03-25T19:58:37.643Z,86.49
2019-03-25T20:03:42.501Z,86.25
2019-03-25T20:08:47.245Z,86.72
2019-03-25T20:13:51.803Z,87.18
2019-03-25T20:18:56.895Z,87.18
2019-03-25T20:24:02.958Z,87.11
2019-03-25T20:29:07.774Z,87.51
2019-03-25T20:34:13.149Z,87.65
2019-03-25T20:39:17.888Z,87.90
2019-03-25T20:44:23.179Z,87.94
2019-03-25T20:49:28.050Z,88.08
2019-03-25T20:54:33.277Z,88.23
2019-03-25T20:59:38.176Z,88.44
2019-03-25T21:04:43.348Z,88.70
2019-03-25T21:09:48.518Z,88.94
2019-03-25T21:14:54.477Z,89.22
2019-03-25T21:19:59.881Z,89.39
2019-03-25T21:25:05.818Z,89.69
2019-03-25T21:30:11.035Z,90.06
2019-03-25T21:35:16.365Z,90.35
2019-03-25T21:40:21.221Z,90.30
2019-03-25T21:45:26.361Z,90.49
2019-03-25T21:50:31.498Z,90.71
2019-03-25T21:55:39.663Z,90.89
2019-03-25T22:00:44.545Z,91.00
2019-03-25T22:05:49.598Z,91.07
2019-03-25T22:10:54.966Z,91.16
2019-03-25T22:15:59.908Z,91.01
2019-03-25T22:21:04.989Z,90.97
2019-03-25T22:26:09.688Z,90.92
2019-03-25T22:31:14.608Z,90.94
2019-03-25T22:36:19.268Z,90.73
2019-03-25T22:41:24.388Z,90.77
2019-03-25T22:46:29.328Z,90.60
2019-03-25T22:51:34.008Z,90.54
2019-03-25T22:56:38.861Z,90.65
2019-03-25T23:01:43.967Z,90.65
2019-03-25T23:06:48.836Z,90.64
2019-03-25T23:11:53.897Z,90.76
2019-03-25T23:16:58.880Z,90.63
2019-03-25T23:22:03.608Z,90.57
2019-03-25T23:27:08.333Z,90.51
2019-03-25T23:32:12.970Z,90.61
2019-03-25T23:37:17.988Z,91.16
2019-03-25T23:42:22.928Z,91.40
2019-03-25T23:47:27.830Z,91.12
2019-03-25T23:52:32.561Z,90.68
2019-03-25T23:57:37.308Z,91.03
